sensor_id;sensor_type;location;lat;lon;timestamp;pressure;altitude;pressure_sealevel;temperature;humidity
27805;BME280;15183;51.350;11.102;2022-12-29T00:01:33;99155.44;;;12.65;76.59
27805;BME280;15183;51.350;11.102;2022-12-29T00:03:59;99142.13;;;12.59;76.29
27805;BME280;15183;51.350;11.102;2022-12-29T00:06:25;99142.44;;;12.68;76.45
27805;BME280;15183;51.350;11.102;2022-12-29T00:08:51;99069.88;;;12.25;76.38
27805;BME280;15183;51.350;11.102;2022-12-29T00:11:22;99126.09;;;12.49;77.00
27805;BME280;15183;51.350;11.102;2022-12-29T00:13:49;99131.25;;;12.66;76.60
27805;BME280;15183;51.350;11.102;2022-12-29T00:16:35;99157.91;;;12.77;76.83
27805;BME280;15183;51.350;11.102;2022-12-29T00:19:02;99095.50;;;12.41;76.48
27805;BME280;15183;51.350;11.102;2022-12-29T00:21:29;99145.41;;;12.77;76.63
27805;BME280;15183;51.350;11.102;2022-12-29T00:24:16;99152.09;;;12.85;76.64
27805;BME280;15183;51.350;11.102;2022-12-29T00:29:50;99118.81;;;12.72;76.52
27805;BME280;15183;51.350;11.102;2022-12-29T00:32:35;99147.88;;;12.89;76.72
27805;BME280;15183;51.350;11.102;2022-12-29T00:35:29;99162.53;;;12.97;76.90
27805;BME280;15183;51.350;11.102;2022-12-29T00:37:58;99106.03;;;12.69;76.53
27805;BME280;15183;51.350;11.102;2022-12-29T00:40:43;99127.44;;;12.95;76.70
27805;BME280;15183;51.350;11.102;2022-12-29T00:43:28;99137.06;;;13.11;76.50
27805;BME280;15183;51.350;11.102;2022-12-29T00:46:13;99126.94;;;13.03;76.58
27805;BME280;15183;51.350;11.102;2022-12-29T00:48:39;99115.22;;;12.99;76.85
27805;BME280;15183;51.350;11.102;2022-12-29T00:51:24;99121.88;;;13.07;76.45
27805;BME280;15183;51.350;11.102;2022-12-29T00:53:50;99119.50;;;13.05;76.32
27805;BME280;15183;51.350;11.102;2022-12-29T00:56:16;99045.13;;;12.62;76.26
27805;BME280;15183;51.350;11.102;2022-12-29T00:58:42;99117.34;;;13.02;76.35
27805;BME280;15183;51.350;11.102;2022-12-29T01:01:08;99129.38;;;13.10;76.65
27805;BME280;15183;51.350;11.102;2022-12-29T01:03:36;99128.56;;;13.14;76.34
27805;BME280;15183;51.350;11.102;2022-12-29T01:06:04;99040.63;;;12.63;76.14
27805;BME280;15183;51.350;11.102;2022-12-29T01:08:31;99115.03;;;13.16;75.99
27805;BME280;15183;51.350;11.102;2022-12-29T01:10:58;99076.28;;;12.77;76.06
27805;BME280;15183;51.350;11.102;2022-12-29T01:13:24;99093.13;;;12.93;76.12
27805;BME280;15183;51.350;11.102;2022-12-29T01:15:51;99134.41;;;13.11;76.23
27805;BME280;15183;51.350;11.102;2022-12-29T01:18:18;99080.84;;;12.82;76.18
27805;BME280;15183;51.350;11.102;2022-12-29T01:20:44;99044.34;;;12.62;75.92
27805;BME280;15183;51.350;11.102;2022-12-29T01:23:10;99068.84;;;12.74;76.07
27805;BME280;15183;51.350;11.102;2022-12-29T01:25:36;99103.50;;;12.95;75.97
27805;BME280;15183;51.350;11.102;2022-12-29T01:28:03;99065.09;;;12.65;76.17
27805;BME280;15183;51.350;11.102;2022-12-29T01:30:29;99084.56;;;12.81;76.39
27805;BME280;15183;51.350;11.102;2022-12-29T01:32:55;99144.53;;;13.20;76.45
27805;BME280;15183;51.350;11.102;2022-12-29T01:35:21;99085.88;;;12.83;76.55
27805;BME280;15183;51.350;11.102;2022-12-29T01:37:48;99073.09;;;12.75;76.07
27805;BME280;15183;51.350;11.102;2022-12-29T01:40:14;99079.00;;;12.87;76.18
27805;BME280;15183;51.350;11.102;2022-12-29T01:42:40;99100.13;;;13.10;76.38
27805;BME280;15183;51.350;11.102;2022-12-29T01:45:13;99066.00;;;12.91;76.21
27805;BME280;15183;51.350;11.102;2022-12-29T01:47:50;99087.84;;;13.03;76.43
27805;BME280;15183;51.350;11.102;2022-12-29T01:50:33;99098.53;;;13.14;76.34
27805;BME280;15183;51.350;11.102;2022-12-29T01:53:05;99105.72;;;13.24;76.37
27805;BME280;15183;51.350;11.102;2022-12-29T01:56:18;99136.34;;;13.37;76.45
27805;BME280;15183;51.350;11.102;2022-12-29T01:58:39;99088.13;;;13.12;76.40
27805;BME280;15183;51.350;11.102;2022-12-29T02:01:07;99090.03;;;13.22;76.52
27805;BME280;15183;51.350;11.102;2022-12-29T02:03:34;99062.06;;;13.09;76.61
27805;BME280;15183;51.350;11.102;2022-12-29T02:08:34;99103.41;;;13.43;76.55
27805;BME280;15183;51.350;11.102;2022-12-29T02:11:00;99064.50;;;13.21;76.29
27805;BME280;15183;51.350;11.102;2022-12-29T02:13:27;99092.53;;;13.50;76.32
27805;BME280;15183;51.350;11.102;2022-12-29T02:18:52;99070.66;;;13.37;76.61
27805;BME280;15183;51.350;11.102;2022-12-29T02:27:31;99082.94;;;13.43;76.32
27805;BME280;15183;51.350;11.102;2022-12-29T02:30:11;99083.16;;;13.42;76.68
27805;BME280;15183;51.350;11.102;2022-12-29T02:35:27;99079.16;;;13.39;76.44
27805;BME280;15183;51.350;11.102;2022-12-29T02:40:39;99061.31;;;13.24;76.87
27805;BME280;15183;51.350;11.102;2022-12-29T02:43:25;99081.81;;;13.34;76.29
27805;BME280;15183;51.350;11.102;2022-12-29T02:46:19;99026.94;;;12.97;75.97
27805;BME280;15183;51.350;11.102;2022-12-29T02:49:01;99072.72;;;13.25;76.27
27805;BME280;15183;51.350;11.102;2022-12-29T02:51:32;99002.47;;;12.90;76.45
27805;BME280;15183;51.350;11.102;2022-12-29T02:53:59;99088.22;;;13.38;76.45
27805;BME280;15183;51.350;11.102;2022-12-29T02:56:44;99071.44;;;13.32;76.41
27805;BME280;15183;51.350;11.102;2022-12-29T02:59:11;99077.03;;;13.31;76.45
27805;BME280;15183;51.350;11.102;2022-12-29T03:04:31;99100.50;;;13.55;76.35
27805;BME280;15183;51.350;11.102;2022-12-29T03:07:12;99054.72;;;13.42;76.53
27805;BME280;15183;51.350;11.102;2022-12-29T03:12:39;99076.84;;;13.58;76.65
27805;BME280;15183;51.350;11.102;2022-12-29T03:16:01;99089.63;;;13.62;76.72
27805;BME280;15183;51.350;11.102;2022-12-29T03:21:43;99046.66;;;13.22;76.47
27805;BME280;15183;51.350;11.102;2022-12-29T03:24:28;99076.03;;;13.48;76.68
27805;BME280;15183;51.350;11.102;2022-12-29T03:26:58;99097.88;;;13.65;76.58
27805;BME280;15183;51.350;11.102;2022-12-29T03:29:26;99030.47;;;13.28;76.62
27805;BME280;15183;51.350;11.102;2022-12-29T03:31:54;99079.75;;;13.57;76.47
27805;BME280;15183;51.350;11.102;2022-12-29T03:34:21;99090.44;;;13.72;76.56
27805;BME280;15183;51.350;11.102;2022-12-29T03:36:52;99090.97;;;13.69;76.36
27805;BME280;15183;51.350;11.102;2022-12-29T03:39:20;99051.78;;;13.44;76.66
27805;BME280;15183;51.350;11.102;2022-12-29T03:41:48;99068.84;;;13.58;76.24
27805;BME280;15183;51.350;11.102;2022-12-29T03:44:17;99078.19;;;13.66;76.27
27805;BME280;15183;51.350;11.102;2022-12-29T03:46:43;98978.81;;;12.98;76.53
27805;BME280;15183;51.350;11.102;2022-12-29T03:49:09;99076.03;;;13.63;76.16
27805;BME280;15183;51.350;11.102;2022-12-29T03:51:35;99032.59;;;13.37;76.46
27805;BME280;15183;51.350;11.102;2022-12-29T03:54:02;98968.13;;;12.83;76.57
27805;BME280;15183;51.350;11.102;2022-12-29T03:56:28;99000.91;;;13.14;76.65
27805;BME280;15183;51.350;11.102;2022-12-29T03:58:54;99050.22;;;13.48;76.94
27805;BME280;15183;51.350;11.102;2022-12-29T04:01:21;99024.16;;;13.45;76.61
27805;BME280;15183;51.350;11.102;2022-12-29T04:03:47;99025.47;;;13.42;76.67
27805;BME280;15183;51.350;11.102;2022-12-29T04:06:13;98969.75;;;12.99;76.38
27805;BME280;15183;51.350;11.102;2022-12-29T04:08:39;98996.66;;;13.18;76.26
27805;BME280;15183;51.350;11.102;2022-12-29T04:11:06;99038.72;;;13.37;76.46
27805;BME280;15183;51.350;11.102;2022-12-29T04:13:32;98981.44;;;12.88;76.18
27805;BME280;15183;51.350;11.102;2022-12-29T04:15:58;99036.84;;;13.27;76.19
27805;BME280;15183;51.350;11.102;2022-12-29T04:18:24;99033.34;;;13.11;76.17
27805;BME280;15183;51.350;11.102;2022-12-29T04:20:50;99006.19;;;12.94;76.20
27805;BME280;15183;51.350;11.102;2022-12-29T04:23:26;98990.72;;;12.80;76.37
27805;BME280;15183;51.350;11.102;2022-12-29T04:25:53;98974.50;;;12.71;76.34
27805;BME280;15183;51.350;11.102;2022-12-29T04:28:19;98946.53;;;12.58;76.31
27805;BME280;15183;51.350;11.102;2022-12-29T04:30:46;99018.16;;;13.01;76.58
27805;BME280;15183;51.350;11.102;2022-12-29T04:33:12;98984.09;;;12.83;76.48
27805;BME280;15183;51.350;11.102;2022-12-29T04:35:39;99026.97;;;13.07;76.71
27805;BME280;15183;51.350;11.102;2022-12-29T04:38:05;98979.31;;;12.90;76.59
27805;BME280;15183;51.350;11.102;2022-12-29T04:40:31;98998.44;;;12.87;76.49
27805;BME280;15183;51.350;11.102;2022-12-29T04:42:57;98965.47;;;12.78;76.63
27805;BME280;15183;51.350;11.102;2022-12-29T04:45:24;98980.91;;;12.86;76.75
27805;BME280;15183;51.350;11.102;2022-12-29T04:47:50;98941.25;;;12.69;76.68
27805;BME280;15183;51.350;11.102;2022-12-29T04:50:16;98970.78;;;12.83;76.38
27805;BME280;15183;51.350;11.102;2022-12-29T04:52:42;98963.91;;;12.87;76.99
27805;BME280;15183;51.350;11.102;2022-12-29T04:55:08;99007.03;;;13.20;76.95
27805;BME280;15183;51.350;11.102;2022-12-29T04:57:35;98939.97;;;12.82;77.23
27805;BME280;15183;51.350;11.102;2022-12-29T05:00:01;98933.31;;;12.84;76.73
27805;BME280;15183;51.350;11.102;2022-12-29T05:02:27;98970.56;;;13.05;76.99
27805;BME280;15183;51.350;11.102;2022-12-29T05:04:54;98979.09;;;13.17;77.03
27805;BME280;15183;51.350;11.102;2022-12-29T05:07:20;98944.53;;;13.07;76.70
27805;BME280;15183;51.350;11.102;2022-12-29T05:09:46;98977.53;;;13.32;76.70
27805;BME280;15183;51.350;11.102;2022-12-29T05:12:12;98969.56;;;13.27;76.38
27805;BME280;15183;51.350;11.102;2022-12-29T05:14:39;98924.56;;;12.89;76.44
27805;BME280;15183;51.350;11.102;2022-12-29T05:17:05;98932.78;;;12.87;76.40
27805;BME280;15183;51.350;11.102;2022-12-29T05:19:31;98975.13;;;13.20;76.74
27805;BME280;15183;51.350;11.102;2022-12-29T05:21:58;98948.50;;;13.05;76.65
27805;BME280;15183;51.350;11.102;2022-12-29T05:24:24;98982.84;;;13.27;76.36
27805;BME280;15183;51.350;11.102;2022-12-29T05:26:51;98972.72;;;13.13;76.64
27805;BME280;15183;51.350;11.102;2022-12-29T05:29:17;98987.91;;;13.39;76.62
27805;BME280;15183;51.350;11.102;2022-12-29T05:31:43;98974.88;;;13.32;76.72
27805;BME280;15183;51.350;11.102;2022-12-29T05:34:12;98995.63;;;13.40;76.81
27805;BME280;15183;51.350;11.102;2022-12-29T05:36:39;98972.72;;;13.13;76.66
27805;BME280;15183;51.350;11.102;2022-12-29T05:39:05;99011.63;;;13.45;76.87
27805;BME280;15183;51.350;11.102;2022-12-29T05:41:33;98955.44;;;13.11;76.97
27805;BME280;15183;51.350;11.102;2022-12-29T05:44:00;98914.72;;;13.00;76.75
27805;BME280;15183;51.350;11.102;2022-12-29T05:46:26;98881.19;;;12.83;76.53
27805;BME280;15183;51.350;11.102;2022-12-29T05:48:52;98904.34;;;13.03;76.66
27805;BME280;15183;51.350;11.102;2022-12-29T05:51:19;99006.81;;;13.63;76.99
27805;BME280;15183;51.350;11.102;2022-12-29T05:53:45;98970.38;;;13.53;76.38
27805;BME280;15183;51.350;11.102;2022-12-29T05:56:11;98953.59;;;13.37;76.67
27805;BME280;15183;51.350;11.102;2022-12-29T05:58:37;98870.31;;;12.95;76.64
27805;BME280;15183;51.350;11.102;2022-12-29T06:01:04;98980.22;;;13.63;76.36
27805;BME280;15183;51.350;11.102;2022-12-29T06:03:30;98930.72;;;13.31;76.48
27805;BME280;15183;51.350;11.102;2022-12-29T06:05:56;98970.66;;;13.67;76.15
27805;BME280;15183;51.350;11.102;2022-12-29T06:08:22;98953.88;;;13.62;76.57
27805;BME280;15183;51.350;11.102;2022-12-29T06:10:49;98923.56;;;13.52;76.58
27805;BME280;15183;51.350;11.102;2022-12-29T06:13:15;98923.81;;;13.51;76.56
27805;BME280;15183;51.350;11.102;2022-12-29T06:15:42;98955.19;;;13.74;76.59
27805;BME280;15183;51.350;11.102;2022-12-29T06:18:08;98950.94;;;13.79;76.33
27805;BME280;15183;51.350;11.102;2022-12-29T06:20:34;98914.75;;;13.52;76.47
27805;BME280;15183;51.350;11.102;2022-12-29T06:23:00;98962.63;;;13.83;76.43
27805;BME280;15183;51.350;11.102;2022-12-29T06:25:27;98944.56;;;13.74;75.79
27805;BME280;15183;51.350;11.102;2022-12-29T06:27:54;98857.28;;;13.14;76.25
27805;BME280;15183;51.350;11.102;2022-12-29T06:30:21;98925.94;;;13.54;76.18
27805;BME280;15183;51.350;11.102;2022-12-29T06:32:48;98879.38;;;13.20;76.45
27805;BME280;15183;51.350;11.102;2022-12-29T06:35:14;98903.56;;;13.39;76.07
27805;BME280;15183;51.350;11.102;2022-12-29T06:37:40;98969.28;;;13.80;76.32
27805;BME280;15183;51.350;11.102;2022-12-29T06:40:07;98892.13;;;13.34;76.11
27805;BME280;15183;51.350;11.102;2022-12-29T06:42:33;98939.75;;;13.61;76.05
27805;BME280;15183;51.350;11.102;2022-12-29T06:44:59;98967.69;;;13.74;76.36
27805;BME280;15183;51.350;11.102;2022-12-29T06:47:26;98863.41;;;13.05;76.10
27805;BME280;15183;51.350;11.102;2022-12-29T06:49:53;98945.88;;;13.62;76.50
27805;BME280;15183;51.350;11.102;2022-12-29T06:52:19;99018.53;;;13.98;76.43
27805;BME280;15183;51.350;11.102;2022-12-29T06:54:45;98926.19;;;13.57;76.59
27805;BME280;15183;51.350;11.102;2022-12-29T06:57:11;98960.25;;;13.86;76.72
27805;BME280;15183;51.350;11.102;2022-12-29T06:59:38;99009.97;;;14.17;76.60
27805;BME280;15183;51.350;11.102;2022-12-29T07:02:04;98996.38;;;14.18;76.46
27805;BME280;15183;51.350;11.102;2022-12-29T07:04:31;98962.34;;;14.00;76.60
27805;BME280;15183;51.350;11.102;2022-12-29T07:06:57;98974.03;;;14.09;76.21
27805;BME280;15183;51.350;11.102;2022-12-29T07:09:23;99008.88;;;14.33;76.40
27805;BME280;15183;51.350;11.102;2022-12-29T07:11:50;98956.19;;;14.15;76.57
27805;BME280;15183;51.350;11.102;2022-12-29T07:14:16;98977.41;;;14.36;76.25
27805;BME280;15183;51.350;11.102;2022-12-29T07:16:42;98959.31;;;14.27;76.17
27805;BME280;15183;51.350;11.102;2022-12-29T07:19:08;98946.81;;;14.17;76.16
27805;BME280;15183;51.350;11.102;2022-12-29T07:21:35;98925.59;;;13.97;76.42
27805;BME280;15183;51.350;11.102;2022-12-29T07:24:01;98907.78;;;13.82;76.47
27805;BME280;15183;51.350;11.102;2022-12-29T07:26:27;98962.59;;;14.03;76.40
27805;BME280;15183;51.350;11.102;2022-12-29T07:28:53;99000.09;;;14.28;76.63
27805;BME280;15183;51.350;11.102;2022-12-29T07:31:22;98932.50;;;13.98;76.59
27805;BME280;15183;51.350;11.102;2022-12-29T07:33:48;98993.94;;;14.32;76.46
27805;BME280;15183;51.350;11.102;2022-12-29T07:36:16;98917.34;;;13.88;76.56
27805;BME280;15183;51.350;11.102;2022-12-29T07:38:42;98996.91;;;14.31;76.46
27805;BME280;15183;51.350;11.102;2022-12-29T07:41:09;98964.66;;;14.22;76.49
27805;BME280;15183;51.350;11.102;2022-12-29T07:43:35;98993.88;;;14.53;76.43
27805;BME280;15183;51.350;11.102;2022-12-29T07:46:01;98944.16;;;14.17;76.51
27805;BME280;15183;51.350;11.102;2022-12-29T07:48:27;99011.97;;;14.61;76.62
27805;BME280;15183;51.350;11.102;2022-12-29T07:50:53;98979.50;;;14.49;76.83
27805;BME280;15183;51.350;11.102;2022-12-29T07:53:20;98950.56;;;14.27;76.83
27805;BME280;15183;51.350;11.102;2022-12-29T07:55:46;98990.41;;;14.53;76.48
27805;BME280;15183;51.350;11.102;2022-12-29T07:58:12;99001.56;;;14.70;76.82
27805;BME280;15183;51.350;11.102;2022-12-29T08:00:39;98939.88;;;14.32;76.62
27805;BME280;15183;51.350;11.102;2022-12-29T08:03:05;98948.94;;;14.31;76.74
27805;BME280;15183;51.350;11.102;2022-12-29T08:05:32;98954.75;;;14.43;76.31
27805;BME280;15183;51.350;11.102;2022-12-29T08:07:59;98997.53;;;14.68;76.65
27805;BME280;15183;51.350;11.102;2022-12-29T08:10:25;98976.31;;;14.52;76.42
27805;BME280;15183;51.350;11.102;2022-12-29T08:12:52;99015.66;;;14.81;76.72
27805;BME280;15183;51.350;11.102;2022-12-29T08:15:18;98959.03;;;14.39;76.45
27805;BME280;15183;51.350;11.102;2022-12-29T08:17:44;98973.06;;;14.60;76.63
27805;BME280;15183;51.350;11.102;2022-12-29T08:20:10;98916.19;;;14.20;76.28
27805;BME280;15183;51.350;11.102;2022-12-29T08:22:37;99019.06;;;14.92;76.67
27805;BME280;15183;51.350;11.102;2022-12-29T08:25:04;98972.47;;;14.69;76.37
27805;BME280;15183;51.350;11.102;2022-12-29T08:27:30;98967.97;;;14.69;76.45
27805;BME280;15183;51.350;11.102;2022-12-29T08:29:57;98978.34;;;14.76;76.43
27805;BME280;15183;51.350;11.102;2022-12-29T08:32:23;98973.56;;;14.78;76.83
27805;BME280;15183;51.350;11.102;2022-12-29T08:34:49;98976.75;;;14.75;76.68
27805;BME280;15183;51.350;11.102;2022-12-29T08:37:15;98969.25;;;14.77;76.66
27805;BME280;15183;51.350;11.102;2022-12-29T08:39:42;98915.56;;;14.39;76.61
27805;BME280;15183;51.350;11.102;2022-12-29T08:42:08;98972.72;;;14.83;76.67
27805;BME280;15183;51.350;11.102;2022-12-29T08:44:34;99008.06;;;15.04;76.75
27805;BME280;15183;51.350;11.102;2022-12-29T08:47:00;99021.88;;;15.11;76.98
27805;BME280;15183;51.350;11.102;2022-12-29T08:49:27;99003.50;;;15.10;76.50
27805;BME280;15183;51.350;11.102;2022-12-29T08:51:53;98970.81;;;14.88;76.73
27805;BME280;15183;51.350;11.102;2022-12-29T08:54:19;99012.28;;;15.15;76.78
27805;BME280;15183;51.350;11.102;2022-12-29T08:56:45;98955.88;;;14.87;76.72
27805;BME280;15183;51.350;11.102;2022-12-29T08:59:12;98970.53;;;14.90;77.02
27805;BME280;15183;51.350;11.102;2022-12-29T09:01:38;98956.97;;;14.86;76.58
27805;BME280;15183;51.350;11.102;2022-12-29T09:04:07;99021.53;;;15.28;76.71
27805;BME280;15183;51.350;11.102;2022-12-29T09:06:33;99015.47;;;15.17;77.09
27805;BME280;15183;51.350;11.102;2022-12-29T09:08:59;98956.97;;;14.86;76.90
27805;BME280;15183;51.350;11.102;2022-12-29T09:11:26;98951.31;;;14.98;77.13
27805;BME280;15183;51.350;11.102;2022-12-29T09:13:52;99008.78;;;15.20;76.86
27805;BME280;15183;51.350;11.102;2022-12-29T09:16:21;99002.06;;;15.28;76.79
27805;BME280;15183;51.350;11.102;2022-12-29T09:18:48;98974.38;;;15.13;76.62
27805;BME280;15183;51.350;11.102;2022-12-29T09:21:14;98983.72;;;15.16;76.44
27805;BME280;15183;51.350;11.102;2022-12-29T09:23:41;98946.25;;;14.92;76.87
27805;BME280;15183;51.350;11.102;2022-12-29T09:26:07;99011.06;;;15.37;76.76
27805;BME280;15183;51.350;11.102;2022-12-29T09:28:34;98929.53;;;14.81;76.57
27805;BME280;15183;51.350;11.102;2022-12-29T09:31:00;99010.00;;;15.38;76.49
27805;BME280;15183;51.350;11.102;2022-12-29T09:33:27;99004.94;;;15.31;76.13
27805;BME280;15183;51.350;11.102;2022-12-29T09:35:57;99023.84;;;15.40;76.74
27805;BME280;15183;51.350;11.102;2022-12-29T09:38:24;99015.56;;;15.42;76.95
27805;BME280;15183;51.350;11.102;2022-12-29T09:40:56;98985.22;;;15.27;76.58
27805;BME280;15183;51.350;11.102;2022-12-29T09:46:21;99007.84;;;15.40;76.58
27805;BME280;15183;51.350;11.102;2022-12-29T09:49:07;98945.16;;;14.98;76.53
27805;BME280;15183;51.350;11.102;2022-12-29T09:51:35;98952.78;;;15.15;76.75
27805;BME280;15183;51.350;11.102;2022-12-29T09:54:33;99012.31;;;15.50;76.75
27805;BME280;15183;51.350;11.102;2022-12-29T09:57:02;99006.16;;;15.49;76.75
27805;BME280;15183;51.350;11.102;2022-12-29T09:59:39;98990.00;;;15.36;76.83
27805;BME280;15183;51.350;11.102;2022-12-29T10:02:27;98957.03;;;15.16;76.71
27805;BME280;15183;51.350;11.102;2022-12-29T10:04:55;99001.41;;;15.41;76.47
27805;BME280;15183;51.350;11.102;2022-12-29T10:07:44;99032.06;;;15.49;76.38
27805;BME280;15183;51.350;11.102;2022-12-29T10:13:06;99015.66;;;15.26;76.30
27805;BME280;15183;51.350;11.102;2022-12-29T10:15:42;99036.97;;;15.37;76.52
27805;BME280;15183;51.350;11.102;2022-12-29T10:24:29;99006.56;;;14.87;75.97
27805;BME280;15183;51.350;11.102;2022-12-29T10:26:57;98978.91;;;14.62;75.49
27805;BME280;15183;51.350;11.102;2022-12-29T10:29:28;99026.81;;;14.94;75.60
27805;BME280;15183;51.350;11.102;2022-12-29T10:32:06;98916.75;;;14.12;75.26
27805;BME280;15183;51.350;11.102;2022-12-29T10:34:37;98952.44;;;14.21;75.24
27805;BME280;15183;51.350;11.102;2022-12-29T10:39:51;98971.53;;;14.39;75.74
27805;BME280;15183;51.350;11.102;2022-12-29T10:44:47;98961.66;;;14.44;76.13
27805;BME280;15183;51.350;11.102;2022-12-29T10:49:18;99036.94;;;14.92;75.90
27805;BME280;15183;51.350;11.102;2022-12-29T10:51:48;99002.06;;;14.78;75.25
27805;BME280;15183;51.350;11.102;2022-12-29T10:57:09;98977.25;;;14.77;74.53
27805;BME280;15183;51.350;11.102;2022-12-29T10:59:38;98948.78;;;14.72;74.28
27805;BME280;15183;51.350;11.102;2022-12-29T11:08:15;99011.63;;;15.34;73.50
27805;BME280;15183;51.350;11.102;2022-12-29T11:10:45;99026.78;;;15.44;73.46
27805;BME280;15183;51.350;11.102;2022-12-29T11:13:19;99025.69;;;15.45;73.36
27805;BME280;15183;51.350;11.102;2022-12-29T11:15:51;99007.88;;;15.35;73.08
27805;BME280;15183;51.350;11.102;2022-12-29T11:18:27;99001.03;;;15.24;72.89
27805;BME280;15183;51.350;11.102;2022-12-29T11:21:01;98980.50;;;15.19;72.52
27805;BME280;15183;51.350;11.102;2022-12-29T11:23:36;99026.03;;;15.33;72.24
27805;BME280;15183;51.350;11.102;2022-12-29T11:28:39;99024.72;;;15.30;71.80
27805;BME280;15183;51.350;11.102;2022-12-29T11:31:08;98970.28;;;14.92;71.96
27805;BME280;15183;51.350;11.102;2022-12-29T11:33:38;99036.44;;;15.34;71.76
27805;BME280;15183;51.350;11.102;2022-12-29T11:36:17;99018.09;;;15.23;71.40
27805;BME280;15183;51.350;11.102;2022-12-29T11:38:49;99028.75;;;15.28;71.59
27805;BME280;15183;51.350;11.102;2022-12-29T11:41:31;99033.03;;;15.24;71.67
27805;BME280;15183;51.350;11.102;2022-12-29T11:44:01;98997.41;;;15.04;71.45
27805;BME280;15183;51.350;11.102;2022-12-29T11:46:34;99012.50;;;15.19;71.97
27805;BME280;15183;51.350;11.102;2022-12-29T11:49:04;98980.31;;;15.05;71.94
27805;BME280;15183;51.350;11.102;2022-12-29T11:51:44;99001.28;;;15.22;71.84
27805;BME280;15183;51.350;11.102;2022-12-29T11:54:29;99030.31;;;15.34;71.70
27805;BME280;15183;51.350;11.102;2022-12-29T11:56:58;99003.63;;;15.34;71.85
27805;BME280;15183;51.350;11.102;2022-12-29T12:01:58;98993.94;;;15.43;71.04
27805;BME280;15183;51.350;11.102;2022-12-29T12:04:30;98993.94;;;15.43;70.77
27805;BME280;15183;51.350;11.102;2022-12-29T12:07:32;99023.72;;;15.61;71.23
27805;BME280;15183;51.350;11.102;2022-12-29T12:10:02;99037.50;;;15.73;71.44
27805;BME280;15183;51.350;11.102;2022-12-29T12:12:39;99042.19;;;15.87;71.57
27805;BME280;15183;51.350;11.102;2022-12-29T12:15:18;98970.38;;;15.51;71.65
27805;BME280;15183;51.350;11.102;2022-12-29T12:20:49;99043.06;;;16.12;71.99
27805;BME280;15183;51.350;11.102;2022-12-29T12:26:47;99041.16;;;16.17;71.35
27805;BME280;15183;51.350;11.102;2022-12-29T12:29:26;99045.13;;;16.20;71.33
27805;BME280;15183;51.350;11.102;2022-12-29T12:32:16;99047.53;;;16.22;71.72
27805;BME280;15183;51.350;11.102;2022-12-29T12:34:46;99037.59;;;16.22;71.94
27805;BME280;15183;51.350;11.102;2022-12-29T12:37:44;99050.84;;;16.38;71.15
27805;BME280;15183;51.350;11.102;2022-12-29T12:41:04;99043.59;;;16.38;71.21
27805;BME280;15183;51.350;11.102;2022-12-29T12:43:51;99039.56;;;16.41;71.15
27805;BME280;15183;51.350;11.102;2022-12-29T12:47:11;99045.09;;;16.49;70.94
27805;BME280;15183;51.350;11.102;2022-12-29T12:49:56;99035.88;;;16.37;71.10
27805;BME280;15183;51.350;11.102;2022-12-29T12:53:07;99052.94;;;16.41;70.29
27805;BME280;15183;51.350;11.102;2022-12-29T12:58:34;99064.03;;;16.53;70.19
27805;BME280;15183;51.350;11.102;2022-12-29T13:01:24;99069.63;;;16.57;69.96
27805;BME280;15183;51.350;11.102;2022-12-29T13:16:39;99063.50;;;16.51;70.25
27805;BME280;15183;51.350;11.102;2022-12-29T13:19:28;99056.50;;;16.55;70.31
27805;BME280;15183;51.350;11.102;2022-12-29T13:28:29;99067.50;;;16.54;69.94
27805;BME280;15183;51.350;11.102;2022-12-29T13:31:15;99065.16;;;16.47;70.26
27805;BME280;15183;51.350;11.102;2022-12-29T13:36:48;99049.81;;;16.33;69.71
27805;BME280;15183;51.350;11.102;2022-12-29T13:39:26;99078.34;;;16.38;69.74
27805;BME280;15183;51.350;11.102;2022-12-29T13:41:56;99028.78;;;15.97;69.67
27805;BME280;15183;51.350;11.102;2022-12-29T13:44:37;99087.75;;;16.35;69.36
27805;BME280;15183;51.350;11.102;2022-12-29T13:49:45;99069.00;;;16.11;69.42
27805;BME280;15183;51.350;11.102;2022-12-29T13:55:29;99084.50;;;16.09;69.49
27805;BME280;15183;51.350;11.102;2022-12-29T13:58:32;99094.66;;;16.07;69.40
27805;BME280;15183;51.350;11.102;2022-12-29T14:01:07;99072.41;;;15.82;69.69
27805;BME280;15183;51.350;11.102;2022-12-29T14:03:50;99098.75;;;15.99;69.59
27805;BME280;15183;51.350;11.102;2022-12-29T14:06:33;99078.63;;;15.72;69.17
27805;BME280;15183;51.350;11.102;2022-12-29T14:09:06;99047.53;;;15.52;69.00
27805;BME280;15183;51.350;11.102;2022-12-29T14:11:37;99043.38;;;15.36;68.92
27805;BME280;15183;51.350;11.102;2022-12-29T14:14:31;99107.00;;;15.63;69.27
27805;BME280;15183;51.350;11.102;2022-12-29T14:17:11;99108.38;;;15.55;69.15
27805;BME280;15183;51.350;11.102;2022-12-29T14:19:43;99128.63;;;15.61;68.88
27805;BME280;15183;51.350;11.102;2022-12-29T14:22:11;99115.09;;;15.47;68.19
27805;BME280;15183;51.350;11.102;2022-12-29T14:24:45;99125.22;;;15.56;68.77
27805;BME280;15183;51.350;11.102;2022-12-29T14:35:00;99130.91;;;15.39;68.92
27805;BME280;15183;51.350;11.102;2022-12-29T14:37:46;99130.13;;;15.33;69.10
27805;BME280;15183;51.350;11.102;2022-12-29T14:40:26;99146.09;;;15.43;69.19
27805;BME280;15183;51.350;11.102;2022-12-29T14:42:55;99124.81;;;15.28;69.49
27805;BME280;15183;51.350;11.102;2022-12-29T14:45:29;99117.06;;;15.26;68.79
27805;BME280;15183;51.350;11.102;2022-12-29T14:47:56;99102.47;;;15.13;69.01
27805;BME280;15183;51.350;11.102;2022-12-29T14:50:43;99138.13;;;15.33;68.84
27805;BME280;15183;51.350;11.102;2022-12-29T14:53:50;99164.03;;;15.38;69.30
27805;BME280;15183;51.350;11.102;2022-12-29T14:56:20;99133.91;;;15.27;69.28
27805;BME280;15183;51.350;11.102;2022-12-29T14:59:03;99164.75;;;15.48;68.95